Time;durP1;ratioP1;P1;durP2;ratioP2;P2;SDS_P1;SDS_P2;PMS_P1;PMS_P2;Temp;Humidity;BMP_temperature;BMP_pressure;BME280_temperature;BME280_humidity;BME280_pressure;Samples;Min_cycle;Max_cycle;Signal;HPM_P1;HPM_P2
2022/09/27 00:00:25;;;;;;;17.90;9.68;;;;;;;15.20;82.97;93037.78;6162489;23;20061;-73
2022/09/27 00:02:51;;;;;;;12.55;8.15;;;;;;;15.27;82.99;93054.00;6163966;23;20008;-73
2022/09/27 00:05:17;;;;;;;11.07;7.63;;;;;;;15.32;82.90;93071.69;6164029;23;19997;-73
2022/09/27 00:07:43;;;;;;;16.02;8.48;;;;;;;15.30;82.80;93053.25;6163993;23;20109;-73
2022/09/27 00:10:09;;;;;;;11.32;6.93;;;;;;;15.34;82.48;93059.44;6163949;23;20001;-73
2022/09/27 00:12:37;;;;;;;14.00;7.95;;;;;;;15.31;82.19;93068.25;6163979;23;20001;-73
2022/09/27 00:15:04;;;;;;;13.23;8.65;;;;;;;14.91;83.93;93053.44;6163834;23;20004;-75
2022/09/27 00:17:30;;;;;;;14.73;8.55;;;;;;;14.89;84.28;93065.69;6164608;23;20020;-75
2022/09/27 00:19:58;;;;;;;13.32;9.00;;;;;;;14.90;84.37;93067.22;6165709;23;19997;-75
2022/09/27 00:22:24;;;;;;;17.35;9.10;;;;;;;14.94;84.35;93054.63;6165689;23;20016;-75
2022/09/27 00:24:50;;;;;;;11.95;8.60;;;;;;;14.97;84.26;93068.09;6165728;23;20241;-75
2022/09/27 00:27:17;;;;;;;12.27;7.57;;;;;;;14.91;84.14;93060.72;6164542;23;20322;-74
2022/09/27 00:29:44;;;;;;;13.13;7.60;;;;;;;14.63;85.73;93076.00;6164195;23;20010;-75
2022/09/27 00:32:14;;;;;;;38.63;11.20;;;;;;;14.53;86.52;93079.25;6164338;23;20001;-74
2022/09/27 00:34:40;;;;;;;13.20;7.82;;;;;;;14.52;86.79;93080.38;6165829;23;20053;-74
2022/09/27 00:37:07;;;;;;;10.80;7.97;;;;;;;14.52;87.17;93071.56;6165864;23;20084;-74
2022/09/27 00:39:32;;;;;;;12.68;8.65;;;;;;;14.58;87.11;93064.78;6165694;23;20039;-74
2022/09/27 00:41:58;;;;;;;15.85;8.27;;;;;;;14.61;87.01;93067.53;6165450;23;20005;-74
2022/09/27 00:44:33;;;;;;;11.35;8.10;;;;;;;14.64;87.09;93045.34;6165335;23;20002;-74
2022/09/27 00:47:15;;;;;;;15.48;7.80;;;;;;;14.69;86.01;93056.91;6165729;23;20028;-74
2022/09/27 00:49:43;;;;;;;10.88;8.02;;;;;;;14.67;85.60;93059.94;6165832;23;20040;-74
2022/09/27 00:52:22;;;;;;;12.10;7.90;;;;;;;14.70;86.41;93058.47;6165955;23;19997;-74
2022/09/27 00:54:55;;;;;;;13.10;8.40;;;;;;;14.73;86.43;93052.38;6165845;23;19997;-74
2022/09/27 00:57:22;;;;;;;16.33;8.32;;;;;;;14.80;86.13;93057.88;6165536;23;20001;-74
2022/09/27 01:00:09;;;;;;;11.27;7.80;;;;;;;14.90;86.09;93051.91;6165987;23;20005;-74
2022/09/27 01:02:37;;;;;;;12.38;7.60;;;;;;;14.88;85.78;93032.72;6165572;23;20228;-74
2022/09/27 01:05:07;;;;;;;10.88;7.75;;;;;;;14.97;85.19;93038.59;6165509;23;20238;-75
2022/09/27 01:07:33;;;;;;;11.02;6.97;;;;;;;15.03;84.73;93029.09;6165933;23;20008;-74
2022/09/27 01:09:59;;;;;;;11.55;7.05;;;;;;;15.08;84.35;93046.03;6165795;23;20287;-72
2022/09/27 01:12:28;;;;;;;11.70;8.30;;;;;;;15.10;84.24;93038.38;6165339;23;20157;-72
2022/09/27 01:15:27;;;;;;;13.10;8.25;;;;;;;15.04;84.21;93044.09;6165346;23;20199;-73
2022/09/27 01:18:35;;;;;;;11.48;6.75;;;;;;;14.97;84.08;93019.81;6165535;23;20207;-73
2022/09/27 01:21:25;;;;;;;18.75;7.40;;;;;;;15.02;84.34;93014.16;6109138;23;19997;-73
2022/09/27 01:24:19;;;;;;;12.13;7.32;;;;;;;15.03;84.03;93007.63;6165079;23;20013;-74
2022/09/27 01:27:04;;;;;;;12.07;7.80;;;;;;;15.06;84.62;93014.19;6165530;23;20163;-74
2022/09/27 01:29:33;;;;;;;16.35;7.47;;;;;;;14.92;84.55;93024.69;6164431;23;20006;-74
2022/09/27 01:32:07;;;;;;;15.32;9.07;;;;;;;14.91;84.77;92999.03;6135808;23;20020;-74
2022/09/27 01:35:05;;;;;;;15.05;9.05;;;;;;;14.83;85.23;92998.91;6134369;23;20008;-74
2022/09/27 01:38:00;;;;;;;15.10;7.43;;;;;;;14.75;85.21;93029.44;6135615;23;20005;-74
2022/09/27 01:40:48;;;;;;;9.57;7.13;;;;;;;14.52;85.95;93018.69;6135800;23;20214;-74
2022/09/27 01:43:30;;;;;;;12.88;8.32;;;;;;;14.61;86.14;93029.19;6135940;23;20002;-73
2022/09/27 01:46:05;;;;;;;15.80;7.57;;;;;;;14.37;86.80;93047.19;6135871;23;20024;-73
2022/09/27 01:48:44;;;;;;;13.98;8.45;;;;;;;14.29;87.26;93031.31;6135213;23;20200;-73
2022/09/27 01:51:23;;;;;;;10.52;7.63;;;;;;;14.31;87.46;93034.41;6135819;23;20033;-73
2022/09/27 01:53:55;;;;;;;14.55;8.43;;;;;;;14.27;87.38;93036.25;6135441;23;20013;-73
2022/09/27 01:56:26;;;;;;;10.40;7.18;;;;;;;14.21;87.93;93041.91;6135886;23;20053;-73
2022/09/27 01:58:54;;;;;;;14.70;8.70;;;;;;;14.23;88.37;93015.53;6135600;23;20212;-74
2022/09/27 02:01:23;;;;;;;16.52;9.02;;;;;;;14.22;88.82;92997.13;6135450;23;20240;-74
2022/09/27 02:03:51;;;;;;;11.98;8.55;;;;;;;14.31;88.74;93002.22;6135534;23;19998;-75
2022/09/27 02:06:29;;;;;;;13.52;9.63;;;;;;;14.27;88.25;92999.50;6135709;23;20002;-74
2022/09/27 02:08:59;;;;;;;16.80;9.43;;;;;;;14.31;88.29;93015.63;6135616;23;20182;-74
2022/09/27 02:11:26;;;;;;;15.38;9.57;;;;;;;14.21;88.46;92991.00;6135253;23;20018;-74
2022/09/27 02:14:06;;;;;;;14.35;9.95;;;;;;;14.30;88.76;92980.03;6135212;23;20057;-75
2022/09/27 02:16:50;;;;;;;14.88;9.60;;;;;;;14.40;88.37;92992.06;6134932;23;20304;-74
2022/09/27 02:19:49;;;;;;;13.18;8.55;;;;;;;14.48;87.42;93001.78;6135308;23;20288;-74
2022/09/27 02:22:18;;;;;;;13.38;8.00;;;;;;;14.43;87.75;92969.88;6135138;23;20315;-74
2022/09/27 02:24:59;;;;;;;13.43;8.85;;;;;;;14.49;88.01;92973.84;6135596;23;20021;-74
2022/09/27 02:27:58;;;;;;;10.60;7.90;;;;;;;14.56;87.67;92947.16;6135090;23;19998;-73
2022/09/27 02:30:24;;;;;;;12.95;8.93;;;;;;;14.57;87.51;92947.91;6123217;23;20013;-74
2022/09/27 02:32:50;;;;;;;11.20;8.25;;;;;;;14.62;87.39;92936.91;6164950;23;20244;-74
2022/09/27 02:35:26;;;;;;;14.82;8.02;;;;;;;14.66;86.81;92939.66;6164949;23;20068;-75
2022/09/27 02:37:54;;;;;;;10.63;7.38;;;;;;;14.63;86.53;92925.81;6164683;23;20308;-74
2022/09/27 02:40:20;;;;;;;12.68;8.43;;;;;;;14.65;86.84;92928.13;6164312;23;19994;-74
2022/09/27 02:42:45;;;;;;;11.05;8.38;;;;;;;14.72;86.08;92935.53;6164683;23;20296;-75
2022/09/27 02:45:13;;;;;;;13.57;7.50;;;;;;;14.68;85.80;92948.88;6164273;23;20005;-74
2022/09/27 02:48:36;;;;;;;14.13;9.13;;;;;;;14.64;85.58;92946.13;6164467;23;20177;-74
2022/09/27 02:51:27;;;;;;;14.10;8.40;;;;;;;14.52;86.97;92940.16;6045754;23;20003;-74
2022/09/27 02:54:03;;;;;;;13.40;9.20;;;;;;;14.50;86.70;92931.72;6030517;23;20018;-73
2022/09/27 02:57:33;;;;;;;12.63;8.52;;;;;;;14.47;87.10;92949.28;6144870;23;19997;-74
2022/09/27 03:00:04;;;;;;;18.00;8.50;;;;;;;14.40;87.21;92965.25;6072218;23;20001;-73
2022/09/27 03:02:52;;;;;;;14.10;7.82;;;;;;;14.10;88.99;92963.22;6163919;23;20012;-74
2022/09/27 03:05:25;;;;;;;13.68;8.55;;;;;;;13.99;89.59;92932.81;6164454;23;20061;-74
2022/09/27 03:07:50;;;;;;;12.45;8.25;;;;;;;13.97;89.60;92933.16;6164123;23;20303;-74
2022/09/27 03:10:22;;;;;;;12.57;8.90;;;;;;;13.94;90.04;92917.81;6164339;23;20020;-74
2022/09/27 03:12:49;;;;;;;10.10;7.95;;;;;;;13.92;90.46;92904.00;6164603;23;20242;-74
2022/09/27 03:15:15;;;;;;;12.35;9.15;;;;;;;13.92;90.43;92904.00;6164364;23;20001;-74
2022/09/27 03:17:40;;;;;;;10.88;8.52;;;;;;;13.90;90.29;92895.53;6164187;23;20004;-74
2022/09/27 03:20:07;;;;;;;10.20;7.75;;;;;;;13.94;90.58;92906.28;6163826;23;19997;-74
2022/09/27 03:22:33;;;;;;;11.20;7.63;;;;;;;14.02;90.17;92899.94;6164268;23;20027;-74
2022/09/27 03:24:58;;;;;;;11.40;7.85;;;;;;;14.01;90.12;92896.47;6164396;23;19997;-74
2022/09/27 03:27:24;;;;;;;11.32;7.93;;;;;;;14.06;89.68;92892.72;6164082;23;19998;-74
2022/09/27 03:29:49;;;;;;;9.77;7.63;;;;;;;14.07;89.04;92896.19;6161272;23;20001;-74
2022/09/27 03:32:15;;;;;;;14.52;8.18;;;;;;;14.05;89.69;92885.81;6164153;23;20330;-73
2022/09/27 03:34:40;;;;;;;11.80;8.85;;;;;;;14.06;89.11;92887.38;6163877;23;20049;-74
2022/09/27 03:37:07;;;;;;;13.77;8.65;;;;;;;13.98;89.40;92902.56;6163953;23;20002;-73
2022/09/27 03:39:33;;;;;;;14.88;8.50;;;;;;;13.88;89.86;92891.66;6164633;23;20001;-73
2022/09/27 03:41:58;;;;;;;11.85;8.27;;;;;;;13.87;90.27;92887.44;6164453;23;20041;-74
2022/09/27 03:44:24;;;;;;;14.05;8.13;;;;;;;13.87;90.52;92874.03;6164625;23;20008;-73
2022/09/27 03:46:50;;;;;;;13.48;9.57;;;;;;;13.81;91.12;92876.25;6164288;23;20004;-73
2022/09/27 03:49:16;;;;;;;16.48;9.75;;;;;;;13.76;91.86;92880.00;6164456;23;20001;-73
2022/09/27 03:51:42;;;;;;;15.80;9.35;;;;;;;13.80;91.83;92880.84;6162476;23;20032;-73
2022/09/27 03:54:08;;;;;;;13.07;9.90;;;;;;;13.76;92.37;92895.28;6166211;23;20290;-74
2022/09/27 03:56:33;;;;;;;12.30;9.25;;;;;;;13.74;92.47;92903.69;6166619;23;20004;-74
2022/09/27 03:59:00;;;;;;;13.27;10.23;;;;;;;13.75;92.81;92893.72;6165790;23;20020;-74
2022/09/27 04:01:26;;;;;;;14.45;10.13;;;;;;;13.73;92.78;92904.78;6165790;23;20056;-74
2022/09/27 04:03:52;;;;;;;12.00;9.38;;;;;;;13.82;92.49;92899.22;6165702;23;20001;-74
2022/09/27 04:06:18;;;;;;;15.95;10.30;;;;;;;13.79;92.25;92892.66;6166224;23;20024;-74
2022/09/27 04:08:44;;;;;;;15.10;10.85;;;;;;;13.85;92.25;92885.88;6166156;23;20001;-74
2022/09/27 04:11:10;;;;;;;14.60;11.00;;;;;;;13.83;92.40;92892.72;6165827;23;20002;-74
2022/09/27 04:13:36;;;;;;;14.50;10.75;;;;;;;13.78;92.52;92885.78;6166229;23;20008;-74
2022/09/27 04:16:01;;;;;;;17.90;12.20;;;;;;;13.78;92.69;92877.75;6166147;23;20004;-74
2022/09/27 04:18:27;;;;;;;15.95;12.65;;;;;;;13.77;92.81;92886.88;6165639;23;20009;-74
2022/09/27 04:20:53;;;;;;;17.13;11.63;;;;;;;13.75;93.18;92889.16;6165924;23;20098;-74
2022/09/27 04:23:19;;;;;;;19.55;13.73;;;;;;;13.79;93.11;92889.22;6165649;23;20009;-74
2022/09/27 04:25:45;;;;;;;18.25;13.02;;;;;;;13.72;93.57;92884.53;6165930;23;20243;-75
2022/09/27 04:28:11;;;;;;;18.67;13.85;;;;;;;13.65;93.52;92879.03;6165661;23;20009;-73
2022/09/27 04:30:37;;;;;;;20.08;14.00;;;;;;;13.73;94.21;92882.59;6165716;23;20010;-73
2022/09/27 04:33:03;;;;;;;22.25;15.63;;;;;;;13.73;93.84;92872.66;6165774;23;20004;-74
2022/09/27 04:38:13;;;;;;;20.17;14.75;;;;;;;13.73;94.00;92880.69;6165778;23;20267;-74
2022/09/27 04:40:39;;;;;;;19.35;15.38;;;;;;;13.76;94.03;92863.94;6165757;23;20009;-74
2022/09/27 04:43:04;;;;;;;20.95;15.35;;;;;;;13.80;93.96;92864.75;6165669;23;20007;-74
2022/09/27 04:45:30;;;;;;;20.75;15.32;;;;;;;13.83;94.01;92876.66;6165478;23;19993;-73
2022/09/27 04:47:56;;;;;;;22.92;15.88;;;;;;;13.83;94.33;92903.44;6165792;23;20275;-73
2022/09/27 04:50:21;;;;;;;24.73;15.48;;;;;;;13.87;94.03;92906.97;6165496;23;20303;-73
2022/09/27 04:52:52;;;;;;;22.88;16.05;;;;;;;13.82;94.41;92916.06;6165583;23;19998;-73
2022/09/27 04:55:21;;;;;;;21.98;16.80;;;;;;;13.76;94.45;92903.31;6165575;23;19993;-73
2022/09/27 04:57:48;;;;;;;25.85;17.02;;;;;;;13.81;95.09;92909.16;6165508;23;19997;-73
2022/09/27 05:00:15;;;;;;;23.85;17.10;;;;;;;13.85;94.67;92899.28;6165328;23;20001;-73
2022/09/27 05:02:42;;;;;;;27.58;17.48;;;;;;;13.93;94.46;92899.41;6164912;23;20017;-74
2022/09/27 05:05:09;;;;;;;24.77;16.65;;;;;;;13.85;94.73;92885.88;6165415;23;20213;-73
2022/09/27 05:07:36;;;;;;;25.20;17.38;;;;;;;13.85;95.24;92893.91;6164998;23;20008;-73
2022/09/27 05:10:02;;;;;;;27.40;17.90;;;;;;;13.91;95.74;92890.94;6165305;23;20112;-74
2022/09/27 05:12:27;;;;;;;22.65;17.10;;;;;;;13.98;95.37;92891.06;6165302;23;19997;-74
2022/09/27 05:14:53;;;;;;;21.13;16.00;;;;;;;14.05;95.47;92873.19;6165314;23;20024;-75
2022/09/27 05:17:21;;;;;;;26.80;17.52;;;;;;;14.14;95.18;92878.31;6165428;23;20056;-74
2022/09/27 05:19:47;;;;;;;24.70;16.83;;;;;;;14.22;94.87;92877.28;6163969;23;20239;-74
2022/09/27 05:22:13;;;;;;;23.98;16.50;;;;;;;14.31;94.16;92877.06;6164882;23;20173;-74
2022/09/27 05:24:39;;;;;;;22.88;15.70;;;;;;;14.42;93.73;92867.25;6165313;23;20207;-74
2022/09/27 05:27:07;;;;;;;21.88;15.00;;;;;;;14.50;93.40;92849.38;6165194;23;20288;-76
2022/09/27 05:29:34;;;;;;;18.98;14.10;;;;;;;14.59;92.46;92849.91;6165741;23;20001;-75
2022/09/27 05:32:03;;;;;;;16.88;12.48;;;;;;;14.62;91.17;92851.84;6165106;23;19997;-75
2022/09/27 05:34:31;;;;;;;18.55;13.50;;;;;;;14.69;91.02;92869.19;6165309;23;20004;-74
2022/09/27 05:36:57;;;;;;;17.42;13.00;;;;;;;14.80;90.31;92870.88;6165032;23;20009;-75
2022/09/27 05:39:22;;;;;;;17.00;12.95;;;;;;;14.88;90.16;92862.91;6164839;23;20064;-75
2022/09/27 05:41:49;;;;;;;18.77;13.40;;;;;;;14.73;89.66;92862.72;6164921;23;20006;-75
2022/09/27 05:44:15;;;;;;;16.23;12.82;;;;;;;14.87;89.16;92888.19;6165285;23;20205;-75
2022/09/27 05:46:41;;;;;;;17.50;12.05;;;;;;;14.96;88.90;92884.13;6164707;23;19994;-74
2022/09/27 05:49:07;;;;;;;17.42;12.95;;;;;;;15.02;88.66;92881.88;6164801;23;20006;-75
2022/09/27 05:51:33;;;;;;;18.40;12.43;;;;;;;15.15;88.24;92877.06;6164903;23;20227;-75
2022/09/27 05:53:58;;;;;;;19.35;12.65;;;;;;;15.18;87.80;92862.91;6164951;23;20198;-74
2022/09/27 05:56:24;;;;;;;20.42;13.25;;;;;;;15.25;87.78;92857.63;6164695;23;19998;-74
2022/09/27 05:58:50;;;;;;;22.10;15.07;;;;;;;15.28;87.78;92864.94;6164735;23;20207;-75
2022/09/27 06:01:18;;;;;;;19.23;13.63;;;;;;;15.31;87.14;92861.53;6164896;23;20000;-75
2022/09/27 06:03:44;;;;;;;17.45;13.65;;;;;;;15.34;87.27;92857.31;6164681;23;20015;-74
2022/09/27 06:06:10;;;;;;;19.52;11.80;;;;;;;15.40;86.94;92867.38;6164678;23;20002;-77
2022/09/27 06:08:37;;;;;;;15.68;11.88;;;;;;;15.48;86.90;92870.13;6165031;23;19993;-76
2022/09/27 06:11:09;;;;;;;20.80;12.30;;;;;;;15.52;86.95;92857.53;6164256;23;20024;-75
2022/09/27 06:13:35;;;;;;;;;;;;;;;15.55;86.92;92862.94;6165135;23;20195;-75
2022/09/27 06:16:02;;;;;;;16.92;13.18;;;;;;;15.56;87.34;92861.00;6164391;23;19909;-75
2022/09/27 06:18:28;;;;;;;19.10;13.73;;;;;;;15.61;86.96;92871.41;6165271;23;20350;-74
2022/09/27 06:20:53;;;;;;;24.77;13.52;;;;;;;15.70;86.44;92865.75;6166504;23;20005;-74
2022/09/27 06:23:22;;;;;;;20.10;14.15;;;;;;;15.83;85.49;92859.78;6165118;23;20009;-79
2022/09/27 06:25:49;;;;;;;19.88;12.23;;;;;;;15.83;84.94;92865.16;6164644;23;20068;-73
2022/09/27 06:28:15;;;;;;;19.42;13.38;;;;;;;15.76;85.06;92862.41;6163070;23;20012;-75
2022/09/27 06:30:43;;;;;;;22.92;13.15;;;;;;;15.70;86.29;92858.47;6162051;23;20012;-74
2022/09/27 06:33:12;;;;;;;19.92;12.93;;;;;;;15.58;86.71;92861.41;6160402;23;19997;-74
2022/09/27 06:35:38;;;;;;;17.20;12.60;;;;;;;15.53;86.35;92865.22;6162036;23;19998;-78
2022/09/27 06:38:07;;;;;;;20.38;13.43;;;;;;;15.45;86.86;92875.09;6162750;23;20006;-74
2022/09/27 06:40:33;;;;;;;21.50;13.68;;;;;;;15.40;88.09;92878.09;6163716;23;20310;-74
2022/09/27 06:43:04;;;;;;;22.30;15.63;;;;;;;15.38;88.18;92874.25;6162403;23;20052;-74
2022/09/27 06:45:31;;;;;;;22.83;15.07;;;;;;;15.36;88.40;92879.97;6162996;23;20190;-74
2022/09/27 06:47:58;;;;;;;24.17;15.30;;;;;;;15.39;89.12;92876.56;6163175;23;20001;-74
2022/09/27 06:50:23;;;;;;;20.40;15.40;;;;;;;15.49;89.70;92877.03;6162918;23;20310;-74
2022/09/27 06:52:49;;;;;;;20.55;12.70;;;;;;;15.51;88.57;92872.06;6162886;23;20060;-74
2022/09/27 06:55:16;;;;;;;19.23;14.38;;;;;;;15.51;88.67;92864.00;6163612;23;20008;-74
2022/09/27 07:00:26;;;;;;;17.95;12.77;;;;;;;15.66;88.33;92865.72;6164929;23;20008;-74
2022/09/27 07:02:54;;;;;;;21.70;13.02;;;;;;;15.74;88.32;92861.22;6164191;23;20061;-75
2022/09/27 07:05:20;;;;;;;16.67;11.80;;;;;;;15.86;87.91;92873.63;6164474;23;20010;-74
2022/09/27 07:07:54;;;;;;;22.17;11.90;;;;;;;15.91;87.08;92876.72;6164673;23;20005;-74
2022/09/27 07:10:20;;;;;;;35.00;12.43;;;;;;;15.98;87.13;92878.72;6164193;23;20005;-74
2022/09/27 07:12:47;;;;;;;26.75;13.32;;;;;;;16.05;86.24;92879.53;6164536;23;19997;-74
2022/09/27 07:15:14;;;;;;;19.20;11.93;;;;;;;15.98;85.41;92871.44;6164765;23;20001;-74
2022/09/27 07:17:39;;;;;;;19.40;13.27;;;;;;;15.99;85.13;92877.56;6164002;23;20031;-74
2022/09/27 07:20:05;;;;;;;18.60;13.48;;;;;;;16.05;85.55;92868.03;6163875;23;20001;-74
2022/09/27 07:22:31;;;;;;;25.38;14.32;;;;;;;16.03;85.09;92859.56;6164023;23;20012;-74
2022/09/27 07:24:56;;;;;;;24.00;13.45;;;;;;;16.02;85.74;92871.47;6164372;23;19998;-76
2022/09/27 07:27:24;;;;;;;27.77;13.73;;;;;;;15.97;86.31;92864.50;6166745;23;20125;-74
2022/09/27 07:29:49;;;;;;;25.08;13.55;;;;;;;15.85;87.04;92867.47;6167427;23;20021;-74
2022/09/27 07:32:15;;;;;;;27.95;15.90;;;;;;;15.84;87.66;92857.88;6167632;23;20004;-74
2022/09/27 07:34:40;;;;;;;24.00;16.40;;;;;;;15.83;87.58;92870.53;6167422;23;20061;-74
2022/09/27 07:37:06;;;;;;;27.88;16.13;;;;;;;15.76;88.38;92886.56;6167315;23;20001;-74
2022/09/27 07:39:31;;;;;;;24.77;15.02;;;;;;;15.72;88.38;92885.75;6167471;23;20287;-74
2022/09/27 07:41:57;;;;;;;23.48;15.13;;;;;;;15.58;88.76;92910.53;6167233;23;20004;-74
2022/09/27 07:44:23;;;;;;;23.20;16.58;;;;;;;15.55;88.74;92918.53;6167590;23;20001;-74
2022/09/27 07:46:48;;;;;;;26.27;16.00;;;;;;;15.43;88.65;92917.66;6167548;23;20017;-74
2022/09/27 07:49:14;;;;;;;28.00;17.30;;;;;;;15.31;89.41;92915.22;6167478;23;20056;-74
2022/09/27 07:51:40;;;;;;;25.33;18.30;;;;;;;15.18;90.20;92903.94;6167255;23;20024;-74
2022/09/27 07:54:05;;;;;;;31.35;18.90;;;;;;;15.25;90.97;92919.38;6167335;23;20045;-74
2022/09/27 07:56:31;;;;;;;30.08;18.35;;;;;;;15.28;90.64;92912.47;6167276;23;20090;-74
2022/09/27 07:58:57;;;;;;;26.75;16.95;;;;;;;15.29;89.92;92906.75;6167461;23;20003;-74
2022/09/27 08:01:22;;;;;;;22.08;15.23;;;;;;;15.29;89.54;92904.06;6167328;23;20003;-75
2022/09/27 08:03:48;;;;;;;25.85;17.05;;;;;;;15.21;89.93;92864.84;6167258;23;20005;-74
2022/09/27 08:06:14;;;;;;;26.33;17.23;;;;;;;15.17;90.95;92869.41;6167537;23;20009;-76
2022/09/27 08:08:40;;;;;;;22.00;17.45;;;;;;;15.21;92.10;92856.81;6167527;23;20013;-75
2022/09/27 08:11:14;;;;;;;24.63;17.13;;;;;;;15.29;92.42;92868.41;6167413;23;20005;-75
2022/09/27 08:13:40;;;;;;;27.02;19.15;;;;;;;15.40;92.57;92861.22;6167171;23;19997;-75
2022/09/27 08:16:06;;;;;;;23.63;17.02;;;;;;;15.56;92.13;92877.13;6167300;23;20195;-75
2022/09/27 08:18:31;;;;;;;25.02;16.42;;;;;;;15.69;91.98;92875.72;6167324;23;20034;-75
2022/09/27 08:20:58;;;;;;;24.95;17.85;;;;;;;15.80;90.84;92876.63;6167039;23;20064;-74
2022/09/27 08:23:24;;;;;;;24.55;16.92;;;;;;;15.95;90.31;92887.50;6165709;23;20002;-74
2022/09/27 08:25:58;;;;;;;20.30;15.63;;;;;;;16.09;88.14;92895.69;6167468;23;20008;-74
2022/09/27 08:28:26;;;;;;;18.00;13.70;;;;;;;16.20;86.86;92888.50;6167507;23;20005;-74
2022/09/27 08:30:51;;;;;;;17.45;13.70;;;;;;;16.35;86.41;92888.63;6167396;23;20006;-75
2022/09/27 08:33:17;;;;;;;16.35;14.02;;;;;;;16.50;85.87;92876.81;6168100;23;20000;-73
2022/09/27 08:35:43;;;;;;;22.95;14.52;;;;;;;16.60;85.27;92851.91;6167630;23;20048;-74
2022/09/27 08:38:10;;;;;;;19.48;14.73;;;;;;;16.73;85.39;92852.38;6166508;23;19997;-75
2022/09/27 08:40:58;;;;;;;18.58;13.98;;;;;;;16.91;84.38;92862.47;6166043;23;20009;-75
2022/09/27 08:44:01;;;;;;;17.20;13.82;;;;;;;17.09;83.60;92844.50;6165859;23;20002;-75
2022/09/27 08:47:25;;;;;;;25.05;14.95;;;;;;;17.36;82.22;92857.66;6165366;23;20005;-74
2022/09/27 08:49:56;;;;;;;18.15;14.52;;;;;;;17.49;80.78;92850.78;6047260;23;20006;-75
2022/09/27 08:52:30;;;;;;;20.35;15.50;;;;;;;17.64;80.47;92865.81;6144889;23;20002;-75
2022/09/27 08:55:05;;;;;;;22.55;16.08;;;;;;;17.88;80.52;92858.22;6165701;23;20057;-75
2022/09/27 08:57:30;;;;;;;16.13;13.73;;;;;;;18.06;80.38;92841.28;6165883;23;20017;-76
2022/09/27 09:00:12;;;;;;;15.20;12.80;;;;;;;18.35;79.88;92842.06;6164182;23;20242;-75
2022/09/27 09:02:40;;;;;;;23.23;16.13;;;;;;;18.55;76.84;92839.72;6165693;23;20001;-76
2022/09/27 09:05:14;;;;;;;19.50;13.57;;;;;;;18.72;77.27;92835.44;6165861;23;20021;-76
2022/09/27 09:08:12;;;;;;;20.98;13.27;;;;;;;18.84;73.44;92819.63;6165532;23;20001;-75
2022/09/27 09:14:03;;;;;;;21.83;12.95;;;;;;;19.03;75.20;92818.41;6166482;23;20117;-83
2022/09/27 09:16:46;;;;;;;18.83;10.88;;;;;;;19.14;74.28;92821.06;6166118;23;20202;-81
2022/09/27 09:19:23;;;;;;;14.15;12.63;;;;;;;19.35;74.67;92825.59;6166214;23;20053;-80
2022/09/27 09:22:07;;;;;;;16.00;12.60;;;;;;;19.33;71.33;92830.63;6166050;23;20081;-78
2022/09/27 09:24:44;;;;;;;19.67;12.57;;;;;;;19.35;73.50;92843.75;6165428;23;20057;-83
2022/09/27 09:27:16;;;;;;;16.00;11.25;;;;;;;19.36;73.65;92819.06;6166126;23;20001;-78
2022/09/27 09:30:09;;;;;;;18.50;10.88;;;;;;;19.53;73.57;92830.94;6165629;23;20110;-80
2022/09/27 09:33:04;;;;;;;20.15;12.65;;;;;;;19.57;71.72;92822.81;6166041;23;20231;-85
2022/09/27 09:35:44;;;;;;;16.63;10.95;;;;;;;19.68;72.57;92828.13;6165801;23;20165;-83
2022/09/27 09:38:42;;;;;;;14.07;10.77;;;;;;;19.71;71.91;92822.75;6166249;23;20025;-79
2022/09/27 09:41:15;;;;;;;15.13;11.70;;;;;;;19.90;72.60;92826.09;6160809;23;20021;-80
2022/09/27 09:43:47;;;;;;;17.33;11.90;;;;;;;20.03;72.42;92816.38;6165486;23;20045;-78
2022/09/27 09:46:22;;;;;;;16.33;10.73;;;;;;;20.12;72.00;92816.66;6165687;23;20017;-78
2022/09/27 09:48:57;;;;;;;22.45;9.95;;;;;;;19.95;71.10;92828.41;6165662;23;20177;-78
2022/09/27 09:51:33;;;;;;;16.17;10.50;;;;;;;19.92;70.89;92829.94;6164796;23;20006;-79
2022/09/27 09:54:06;;;;;;;17.30;10.98;;;;;;;19.67;70.96;92840.13;6165384;23;20013;-80
2022/09/27 09:56:52;;;;;;;14.05;9.90;;;;;;;19.52;71.69;92834.00;6165377;23;20024;-85
2022/09/27 09:59:53;;;;;;;16.55;9.82;;;;;;;19.62;72.49;92830.47;6168282;23;20231;-86
2022/09/27 10:02:38;;;;;;;13.80;8.93;;;;;;;19.72;72.29;92834.31;6104531;23;20028;-85
2022/09/27 10:05:05;;;;;;;15.45;8.80;;;;;;;19.83;69.11;92824.97;6165788;23;20034;-82
2022/09/27 10:07:35;;;;;;;11.52;9.05;;;;;;;19.67;69.72;92821.97;6165755;23;20009;-85
2022/09/27 10:10:03;;;;;;;18.42;11.25;;;;;;;19.57;71.88;92828.22;6163822;23;20350;-81
2022/09/27 10:12:29;;;;;;;15.80;9.90;;;;;;;19.54;73.24;92818.16;6163814;23;20224;-84
2022/09/27 10:15:00;;;;;;;14.45;9.82;;;;;;;19.52;73.07;92815.88;6165655;23;20008;-82
2022/09/27 10:17:34;;;;;;;13.77;9.70;;;;;;;19.51;72.29;92825.16;6165598;23;19993;-84
2022/09/27 10:20:02;;;;;;;14.02;9.43;;;;;;;19.53;72.17;92827.47;6165308;23;20207;-84
2022/09/27 10:22:35;;;;;;;15.18;10.20;;;;;;;19.49;72.37;92815.91;6165172;23;20000;-84
2022/09/27 10:25:07;;;;;;;22.23;10.20;;;;;;;19.41;71.94;92815.91;6165091;23;20295;-78
2022/09/27 10:27:45;;;;;;;17.40;11.02;;;;;;;19.34;72.45;92818.69;6164987;23;19997;-78
2022/09/27 10:30:40;;;;;;;19.20;9.68;;;;;;;19.36;72.83;92816.34;6165028;23;20024;-77
2022/09/27 10:33:15;;;;;;;13.70;9.15;;;;;;;19.48;73.00;92817.03;6139789;23;20291;-78
2022/09/27 10:35:43;;;;;;;10.52;8.32;;;;;;;19.62;72.84;92815.06;6165019;23;20060;-77
2022/09/27 10:38:15;;;;;;;14.20;9.38;;;;;;;19.79;72.99;92823.47;6164845;23;20176;-73
2022/09/27 10:40:42;;;;;;;14.00;9.35;;;;;;;19.92;72.12;92804.84;6164935;23;20002;-74
2022/09/27 10:43:27;;;;;;;12.95;8.63;;;;;;;20.18;72.79;92790.72;6164488;23;20004;-73
2022/09/27 10:46:11;;;;;;;23.63;10.98;;;;;;;20.40;71.92;92774.31;6164656;23;20008;-73
2022/09/27 10:48:40;;;;;;;14.25;9.40;;;;;;;20.55;71.64;92769.50;6164534;23;20047;-74
2022/09/27 10:51:30;;;;;;;15.02;10.02;;;;;;;20.52;70.31;92776.50;6164392;23;20002;-72
2022/09/27 10:54:00;;;;;;;13.73;8.20;;;;;;;20.55;70.33;92762.16;6164468;23;20002;-71
2022/09/27 10:56:31;;;;;;;12.95;8.90;;;;;;;20.71;70.40;92769.00;6164467;23;20102;-72
2022/09/27 10:59:01;;;;;;;12.90;8.38;;;;;;;20.61;69.64;92755.16;6164499;23;19997;-72
2022/09/27 11:01:39;;;;;;;11.88;8.77;;;;;;;20.81;70.69;92749.16;6164204;23;20088;-72
2022/09/27 11:04:05;;;;;;;12.90;8.60;;;;;;;20.87;71.16;92750.25;6164169;23;20041;-72
2022/09/27 11:06:36;;;;;;;13.02;8.32;;;;;;;20.97;70.33;92738.50;6164604;23;20001;-72
2022/09/27 11:09:17;;;;;;;15.10;9.00;;;;;;;21.06;69.34;92753.50;6164278;23;20004;-73
2022/09/27 11:11:44;;;;;;;13.73;8.32;;;;;;;21.10;69.29;92748.81;6164224;23;19997;-74
2022/09/27 11:14:24;;;;;;;11.05;7.97;;;;;;;21.14;68.50;92739.44;6164257;23;19997;-72
2022/09/27 11:17:12;;;;;;;13.65;7.68;;;;;;;21.36;67.53;92750.03;6164382;23;20009;-71
2022/09/27 11:19:52;;;;;;;9.65;7.97;;;;;;;21.40;65.72;92761.56;6164293;23;19993;-72
2022/09/27 11:22:40;;;;;;;13.85;7.30;;;;;;;21.40;64.00;92759.63;6164528;23;20036;-72
2022/09/27 11:25:47;;;;;;;15.25;7.72;;;;;;;21.25;65.52;92736.63;6164219;23;20211;-73
2022/09/27 11:28:31;;;;;;;12.50;7.53;;;;;;;21.13;65.71;92751.47;6045694;23;20311;-72
2022/09/27 11:31:37;;;;;;;14.13;7.18;;;;;;;20.98;66.64;92747.41;6159191;23;20010;-72
2022/09/27 11:34:42;;;;;;;11.38;7.30;;;;;;;20.93;68.67;92720.78;6163999;23;20001;-72
2022/09/27 11:37:10;;;;;;;11.13;7.30;;;;;;;21.05;66.69;92714.81;6045593;23;20026;-71
2022/09/27 11:39:47;;;;;;;10.55;6.80;;;;;;;21.11;68.61;92723.25;6142889;23;20012;-72
2022/09/27 11:42:22;;;;;;;11.77;6.75;;;;;;;21.21;68.23;92728.53;6163835;23;20028;-72
2022/09/27 11:45:09;;;;;;;9.68;6.43;;;;;;;21.55;67.68;92711.41;6163598;23;20043;-72
2022/09/27 11:48:02;;;;;;;11.95;5.93;;;;;;;21.72;66.47;92709.63;6163525;23;20001;-72
2022/09/27 11:50:55;;;;;;;14.23;5.78;;;;;;;22.00;65.41;92708.41;6162543;23;20105;-73
2022/09/27 11:53:46;;;;;;;7.45;5.68;;;;;;;22.25;63.31;92690.97;6164490;23;20053;-80